sensor_id;sensor_type;location;lat;lon;timestamp;P1;durP1;ratioP1;P2;durP2;ratioP2
46561;SDS011;32289;42.688;23.330;2023-05-20T00:01:21;15.35;;;7.25;;
46561;SDS011;32289;42.688;23.330;2023-05-20T00:05:02;16.70;;;7.30;;
46561;SDS011;32289;42.688;23.330;2023-05-20T00:08:43;13.00;;;6.47;;
46561;SDS011;32289;42.688;23.330;2023-05-20T00:12:23;15.80;;;7.75;;
46561;SDS011;32289;42.688;23.330;2023-05-20T00:16:04;12.43;;;6.65;;
46561;SDS011;32289;42.688;23.330;2023-05-20T00:19:45;11.80;;;7.00;;
46561;SDS011;32289;42.688;23.330;2023-05-20T00:23:26;13.52;;;6.90;;
46561;SDS011;32289;42.688;23.330;2023-05-20T00:27:06;14.10;;;6.53;;
46561;SDS011;32289;42.688;23.330;2023-05-20T00:30:47;14.32;;;7.53;;
46561;SDS011;32289;42.688;23.330;2023-05-20T00:34:28;15.68;;;7.28;;
46561;SDS011;32289;42.688;23.330;2023-05-20T00:38:08;14.23;;;7.47;;
46561;SDS011;32289;42.688;23.330;2023-05-20T00:41:49;10.65;;;6.30;;
46561;SDS011;32289;42.688;23.330;2023-05-20T00:45:30;12.20;;;6.47;;
46561;SDS011;32289;42.688;23.330;2023-05-20T00:49:11;11.98;;;7.32;;
46561;SDS011;32289;42.688;23.330;2023-05-20T00:52:51;12.82;;;7.85;;
46561;SDS011;32289;42.688;23.330;2023-05-20T00:56:34;13.38;;;6.63;;
46561;SDS011;32289;42.688;23.330;2023-05-20T01:00:15;13.93;;;7.60;;
46561;SDS011;32289;42.688;23.330;2023-05-20T01:03:55;13.52;;;7.32;;
46561;SDS011;32289;42.688;23.330;2023-05-20T01:07:36;13.80;;;6.85;;
46561;SDS011;32289;42.688;23.330;2023-05-20T01:15:14;13.02;;;7.13;;
46561;SDS011;32289;42.688;23.330;2023-05-20T01:18:55;16.98;;;7.47;;
46561;SDS011;32289;42.688;23.330;2023-05-20T01:22:38;11.80;;;7.03;;
46561;SDS011;32289;42.688;23.330;2023-05-20T01:26:29;15.38;;;7.00;;
46561;SDS011;32289;42.688;23.330;2023-05-20T01:30:10;15.23;;;6.50;;
46561;SDS011;32289;42.688;23.330;2023-05-20T01:33:54;11.88;;;7.63;;
46561;SDS011;32289;42.688;23.330;2023-05-20T01:37:38;14.38;;;7.88;;
46561;SDS011;32289;42.688;23.330;2023-05-20T01:41:20;14.90;;;7.10;;
46561;SDS011;32289;42.688;23.330;2023-05-20T01:45:04;12.80;;;6.85;;
46561;SDS011;32289;42.688;23.330;2023-05-20T01:48:45;11.85;;;6.28;;
46561;SDS011;32289;42.688;23.330;2023-05-20T01:52:26;17.25;;;6.15;;
46561;SDS011;32289;42.688;23.330;2023-05-20T01:56:06;10.95;;;6.63;;
46561;SDS011;32289;42.688;23.330;2023-05-20T01:59:47;15.70;;;6.50;;
46561;SDS011;32289;42.688;23.330;2023-05-20T02:03:28;16.25;;;7.40;;
46561;SDS011;32289;42.688;23.330;2023-05-20T02:07:08;13.85;;;7.82;;
46561;SDS011;32289;42.688;23.330;2023-05-20T02:10:49;13.32;;;7.07;;
46561;SDS011;32289;42.688;23.330;2023-05-20T02:14:30;10.30;;;6.57;;
46561;SDS011;32289;42.688;23.330;2023-05-20T02:18:10;13.55;;;7.20;;
46561;SDS011;32289;42.688;23.330;2023-05-20T02:21:51;18.75;;;7.65;;
46561;SDS011;32289;42.688;23.330;2023-05-20T02:25:32;14.93;;;8.23;;
46561;SDS011;32289;42.688;23.330;2023-05-20T02:29:12;20.58;;;9.95;;
46561;SDS011;32289;42.688;23.330;2023-05-20T02:32:53;16.58;;;10.38;;
46561;SDS011;32289;42.688;23.330;2023-05-20T02:36:34;19.48;;;9.65;;
46561;SDS011;32289;42.688;23.330;2023-05-20T02:40:15;23.15;;;9.60;;
46561;SDS011;32289;42.688;23.330;2023-05-20T02:43:56;14.73;;;9.07;;
46561;SDS011;32289;42.688;23.330;2023-05-20T02:47:36;20.52;;;10.52;;
46561;SDS011;32289;42.688;23.330;2023-05-20T02:51:17;17.48;;;10.73;;
46561;SDS011;32289;42.688;23.330;2023-05-20T02:54:58;18.73;;;10.70;;
46561;SDS011;32289;42.688;23.330;2023-05-20T02:58:38;24.92;;;11.73;;
46561;SDS011;32289;42.688;23.330;2023-05-20T03:02:20;21.02;;;9.38;;
46561;SDS011;32289;42.688;23.330;2023-05-20T03:06:02;17.10;;;9.73;;
46561;SDS011;32289;42.688;23.330;2023-05-20T03:09:43;17.45;;;9.98;;
46561;SDS011;32289;42.688;23.330;2023-05-20T03:13:23;16.75;;;9.55;;
46561;SDS011;32289;42.688;23.330;2023-05-20T03:17:04;20.08;;;10.10;;
46561;SDS011;32289;42.688;23.330;2023-05-20T03:20:45;17.88;;;10.40;;
46561;SDS011;32289;42.688;23.330;2023-05-20T03:24:26;24.15;;;10.93;;
46561;SDS011;32289;42.688;23.330;2023-05-20T03:28:07;18.50;;;9.98;;
46561;SDS011;32289;42.688;23.330;2023-05-20T03:31:48;16.40;;;9.65;;
46561;SDS011;32289;42.688;23.330;2023-05-20T03:35:29;19.35;;;9.15;;
46561;SDS011;32289;42.688;23.330;2023-05-20T03:39:09;18.38;;;9.93;;
46561;SDS011;32289;42.688;23.330;2023-05-20T03:42:50;22.65;;;9.07;;
46561;SDS011;32289;42.688;23.330;2023-05-20T03:46:31;14.93;;;8.48;;
46561;SDS011;32289;42.688;23.330;2023-05-20T03:50:13;19.58;;;9.10;;
46561;SDS011;32289;42.688;23.330;2023-05-20T03:53:53;15.57;;;9.00;;
46561;SDS011;32289;42.688;23.330;2023-05-20T03:57:34;17.23;;;8.07;;
46561;SDS011;32289;42.688;23.330;2023-05-20T04:01:15;14.85;;;8.18;;
46561;SDS011;32289;42.688;23.330;2023-05-20T04:04:56;15.05;;;8.05;;
46561;SDS011;32289;42.688;23.330;2023-05-20T04:08:37;13.43;;;7.68;;
46561;SDS011;32289;42.688;23.330;2023-05-20T04:12:18;17.08;;;8.10;;
46561;SDS011;32289;42.688;23.330;2023-05-20T04:15:59;14.18;;;9.02;;
46561;SDS011;32289;42.688;23.330;2023-05-20T04:19:40;13.27;;;7.28;;
46561;SDS011;32289;42.688;23.330;2023-05-20T04:23:22;19.17;;;7.30;;
46561;SDS011;32289;42.688;23.330;2023-05-20T04:27:03;12.35;;;7.63;;
46561;SDS011;32289;42.688;23.330;2023-05-20T04:30:44;16.27;;;8.45;;
46561;SDS011;32289;42.688;23.330;2023-05-20T04:34:28;14.98;;;7.72;;
46561;SDS011;32289;42.688;23.330;2023-05-20T04:38:08;13.60;;;7.30;;
46561;SDS011;32289;42.688;23.330;2023-05-20T04:41:49;19.45;;;8.05;;
46561;SDS011;32289;42.688;23.330;2023-05-20T04:45:33;14.88;;;7.70;;
46561;SDS011;32289;42.688;23.330;2023-05-20T04:49:15;12.10;;;7.70;;
46561;SDS011;32289;42.688;23.330;2023-05-20T04:52:56;15.20;;;7.93;;
46561;SDS011;32289;42.688;23.330;2023-05-20T04:56:37;20.00;;;11.88;;
46561;SDS011;32289;42.688;23.330;2023-05-20T05:00:19;13.55;;;8.13;;
46561;SDS011;32289;42.688;23.330;2023-05-20T05:03:59;12.23;;;7.97;;
46561;SDS011;32289;42.688;23.330;2023-05-20T05:07:40;15.85;;;8.15;;
46561;SDS011;32289;42.688;23.330;2023-05-20T05:11:21;14.25;;;6.95;;
46561;SDS011;32289;42.688;23.330;2023-05-20T05:15:02;12.43;;;7.93;;
46561;SDS011;32289;42.688;23.330;2023-05-20T05:18:43;12.73;;;7.30;;
46561;SDS011;32289;42.688;23.330;2023-05-20T05:22:23;13.55;;;7.57;;
46561;SDS011;32289;42.688;23.330;2023-05-20T05:26:04;11.77;;;6.75;;
46561;SDS011;32289;42.688;23.330;2023-05-20T05:29:45;11.98;;;7.30;;
46561;SDS011;32289;42.688;23.330;2023-05-20T05:33:25;12.93;;;7.50;;
46561;SDS011;32289;42.688;23.330;2023-05-20T05:37:06;15.18;;;7.00;;
46561;SDS011;32289;42.688;23.330;2023-05-20T05:40:47;14.73;;;7.93;;
46561;SDS011;32289;42.688;23.330;2023-05-20T05:44:28;13.60;;;7.75;;
46561;SDS011;32289;42.688;23.330;2023-05-20T05:48:08;13.25;;;7.30;;
46561;SDS011;32289;42.688;23.330;2023-05-20T05:51:49;11.25;;;6.60;;
46561;SDS011;32289;42.688;23.330;2023-05-20T05:55:30;15.00;;;7.25;;
46561;SDS011;32289;42.688;23.330;2023-05-20T05:59:11;10.50;;;6.53;;
46561;SDS011;32289;42.688;23.330;2023-05-20T06:02:52;8.80;;;6.43;;
46561;SDS011;32289;42.688;23.330;2023-05-20T06:06:32;9.18;;;6.35;;
46561;SDS011;32289;42.688;23.330;2023-05-20T06:10:13;9.98;;;6.40;;
46561;SDS011;32289;42.688;23.330;2023-05-20T06:13:54;10.98;;;6.80;;
46561;SDS011;32289;42.688;23.330;2023-05-20T06:17:35;11.10;;;5.65;;
46561;SDS011;32289;42.688;23.330;2023-05-20T06:21:15;11.65;;;5.50;;
46561;SDS011;32289;42.688;23.330;2023-05-20T06:24:56;9.90;;;5.45;;
46561;SDS011;32289;42.688;23.330;2023-05-20T06:28:41;9.40;;;5.32;;
46561;SDS011;32289;42.688;23.330;2023-05-20T06:32:22;10.23;;;5.40;;
46561;SDS011;32289;42.688;23.330;2023-05-20T06:36:02;13.48;;;5.28;;
46561;SDS011;32289;42.688;23.330;2023-05-20T06:39:44;11.50;;;5.90;;
46561;SDS011;32289;42.688;23.330;2023-05-20T06:43:26;6.00;;;4.13;;
46561;SDS011;32289;42.688;23.330;2023-05-20T06:47:07;9.40;;;5.63;;
46561;SDS011;32289;42.688;23.330;2023-05-20T06:50:48;6.10;;;4.20;;
46561;SDS011;32289;42.688;23.330;2023-05-20T06:54:28;8.27;;;4.35;;
46561;SDS011;32289;42.688;23.330;2023-05-20T06:58:09;6.65;;;4.38;;
46561;SDS011;32289;42.688;23.330;2023-05-20T07:01:50;5.97;;;4.40;;
46561;SDS011;32289;42.688;23.330;2023-05-20T07:05:30;7.22;;;4.70;;
46561;SDS011;32289;42.688;23.330;2023-05-20T07:09:11;9.32;;;4.97;;
46561;SDS011;32289;42.688;23.330;2023-05-20T07:12:51;6.05;;;3.17;;
46561;SDS011;32289;42.688;23.330;2023-05-20T07:16:32;4.95;;;3.50;;
46561;SDS011;32289;42.688;23.330;2023-05-20T07:20:14;5.15;;;4.07;;
46561;SDS011;32289;42.688;23.330;2023-05-20T07:23:54;7.70;;;3.88;;
46561;SDS011;32289;42.688;23.330;2023-05-20T07:27:35;5.97;;;4.18;;
46561;SDS011;32289;42.688;23.330;2023-05-20T07:31:16;5.88;;;3.47;;
46561;SDS011;32289;42.688;23.330;2023-05-20T07:34:57;5.35;;;3.65;;
46561;SDS011;32289;42.688;23.330;2023-05-20T07:38:37;6.60;;;3.15;;
46561;SDS011;32289;42.688;23.330;2023-05-20T07:42:18;5.65;;;4.00;;
46561;SDS011;32289;42.688;23.330;2023-05-20T07:45:59;4.43;;;3.13;;
46561;SDS011;32289;42.688;23.330;2023-05-20T07:49:39;7.57;;;3.03;;
46561;SDS011;32289;42.688;23.330;2023-05-20T07:53:20;8.85;;;5.05;;
46561;SDS011;32289;42.688;23.330;2023-05-20T07:57:02;6.10;;;3.88;;
46561;SDS011;32289;42.688;23.330;2023-05-20T08:00:43;7.45;;;3.38;;
46561;SDS011;32289;42.688;23.330;2023-05-20T08:04:24;5.07;;;3.65;;
46561;SDS011;32289;42.688;23.330;2023-05-20T08:08:05;5.90;;;3.70;;
46561;SDS011;32289;42.688;23.330;2023-05-20T08:11:46;5.13;;;3.60;;
46561;SDS011;32289;42.688;23.330;2023-05-20T08:15:27;4.75;;;3.63;;
46561;SDS011;32289;42.688;23.330;2023-05-20T08:19:07;6.53;;;3.50;;
46561;SDS011;32289;42.688;23.330;2023-05-20T08:22:48;6.47;;;4.13;;
46561;SDS011;32289;42.688;23.330;2023-05-20T08:26:29;6.03;;;3.70;;
46561;SDS011;32289;42.688;23.330;2023-05-20T08:30:10;6.18;;;5.57;;
46561;SDS011;32289;42.688;23.330;2023-05-20T08:33:51;6.05;;;3.55;;
46561;SDS011;32289;42.688;23.330;2023-05-20T08:37:31;7.05;;;3.65;;
46561;SDS011;32289;42.688;23.330;2023-05-20T08:41:12;5.35;;;3.72;;
46561;SDS011;32289;42.688;23.330;2023-05-20T08:44:53;5.40;;;3.72;;
46561;SDS011;32289;42.688;23.330;2023-05-20T08:48:35;5.32;;;3.75;;
46561;SDS011;32289;42.688;23.330;2023-05-20T08:52:20;7.22;;;3.97;;
46561;SDS011;32289;42.688;23.330;2023-05-20T08:56:01;4.88;;;4.03;;
46561;SDS011;32289;42.688;23.330;2023-05-20T08:59:42;5.53;;;3.70;;
46561;SDS011;32289;42.688;23.330;2023-05-20T09:03:25;9.85;;;5.55;;
46561;SDS011;32289;42.688;23.330;2023-05-20T09:07:06;9.43;;;5.10;;
46561;SDS011;32289;42.688;23.330;2023-05-20T09:10:47;7.68;;;4.63;;
46561;SDS011;32289;42.688;23.330;2023-05-20T09:14:31;7.13;;;3.72;;
46561;SDS011;32289;42.688;23.330;2023-05-20T09:18:11;6.95;;;4.10;;
46561;SDS011;32289;42.688;23.330;2023-05-20T09:21:52;10.05;;;4.07;;
46561;SDS011;32289;42.688;23.330;2023-05-20T09:25:34;7.05;;;4.30;;
46561;SDS011;32289;42.688;23.330;2023-05-20T09:29:16;5.25;;;3.88;;
46561;SDS011;32289;42.688;23.330;2023-05-20T09:32:58;6.95;;;4.25;;
46561;SDS011;32289;42.688;23.330;2023-05-20T09:36:43;4.78;;;3.80;;
46561;SDS011;32289;42.688;23.330;2023-05-20T09:40:25;6.97;;;3.78;;
46561;SDS011;32289;42.688;23.330;2023-05-20T09:44:06;7.38;;;4.75;;
46561;SDS011;32289;42.688;23.330;2023-05-20T09:47:49;6.28;;;3.92;;
46561;SDS011;32289;42.688;23.330;2023-05-20T09:51:34;7.18;;;3.80;;
46561;SDS011;32289;42.688;23.330;2023-05-20T09:55:15;5.38;;;3.83;;
46561;SDS011;32289;42.688;23.330;2023-05-20T09:58:58;7.65;;;4.22;;
46561;SDS011;32289;42.688;23.330;2023-05-20T10:02:41;6.60;;;4.85;;
46561;SDS011;32289;42.688;23.330;2023-05-20T10:06:35;6.35;;;4.10;;
46561;SDS011;32289;42.688;23.330;2023-05-20T10:14:42;6.55;;;3.70;;
46561;SDS011;32289;42.688;23.330;2023-05-20T10:22:53;4.40;;;3.05;;
46561;SDS011;32289;42.688;23.330;2023-05-20T10:30:18;4.78;;;3.25;;
46561;SDS011;32289;42.688;23.330;2023-05-20T10:34:00;4.75;;;3.08;;
46561;SDS011;32289;42.688;23.330;2023-05-20T10:37:41;5.93;;;3.42;;
46561;SDS011;32289;42.688;23.330;2023-05-20T10:41:25;4.88;;;3.00;;
46561;SDS011;32289;42.688;23.330;2023-05-20T10:45:07;7.93;;;3.60;;
46561;SDS011;32289;42.688;23.330;2023-05-20T10:48:48;7.72;;;3.55;;
46561;SDS011;32289;42.688;23.330;2023-05-20T10:52:31;8.73;;;6.35;;
46561;SDS011;32289;42.688;23.330;2023-05-20T10:56:16;5.95;;;3.92;;
46561;SDS011;32289;42.688;23.330;2023-05-20T11:00:03;5.50;;;3.78;;
46561;SDS011;32289;42.688;23.330;2023-05-20T11:03:44;5.93;;;3.63;;
46561;SDS011;32289;42.688;23.330;2023-05-20T11:07:28;4.43;;;3.35;;
46561;SDS011;32289;42.688;23.330;2023-05-20T11:11:10;5.97;;;3.70;;
46561;SDS011;32289;42.688;23.330;2023-05-20T11:14:52;4.85;;;3.40;;
46561;SDS011;32289;42.688;23.330;2023-05-20T11:18:33;7.28;;;3.63;;
46561;SDS011;32289;42.688;23.330;2023-05-20T11:22:13;6.50;;;3.55;;
46561;SDS011;32289;42.688;23.330;2023-05-20T11:25:55;7.82;;;3.55;;
46561;SDS011;32289;42.688;23.330;2023-05-20T11:29:36;7.68;;;4.85;;
46561;SDS011;32289;42.688;23.330;2023-05-20T11:33:17;12.85;;;4.05;;
46561;SDS011;32289;42.688;23.330;2023-05-20T11:36:59;7.82;;;3.83;;
46561;SDS011;32289;42.688;23.330;2023-05-20T11:40:52;8.07;;;4.25;;
46561;SDS011;32289;42.688;23.330;2023-05-20T11:44:34;5.47;;;3.78;;
46561;SDS011;32289;42.688;23.330;2023-05-20T11:48:15;9.65;;;4.43;;
46561;SDS011;32289;42.688;23.330;2023-05-20T11:51:56;9.18;;;4.60;;
46561;SDS011;32289;42.688;23.330;2023-05-20T11:55:49;9.25;;;4.70;;
46561;SDS011;32289;42.688;23.330;2023-05-20T11:59:34;6.72;;;4.35;;
46561;SDS011;32289;42.688;23.330;2023-05-20T12:03:15;7.07;;;4.07;;
46561;SDS011;32289;42.688;23.330;2023-05-20T12:06:56;7.53;;;3.80;;
46561;SDS011;32289;42.688;23.330;2023-05-20T12:10:36;4.57;;;3.47;;
46561;SDS011;32289;42.688;23.330;2023-05-20T12:14:17;7.53;;;4.70;;
46561;SDS011;32289;42.688;23.330;2023-05-20T12:18:00;9.02;;;3.92;;
46561;SDS011;32289;42.688;23.330;2023-05-20T12:21:41;6.50;;;3.70;;
46561;SDS011;32289;42.688;23.330;2023-05-20T12:25:21;6.72;;;3.97;;
46561;SDS011;32289;42.688;23.330;2023-05-20T12:29:03;11.02;;;4.00;;
46561;SDS011;32289;42.688;23.330;2023-05-20T12:32:44;5.82;;;3.70;;
46561;SDS011;32289;42.688;23.330;2023-05-20T12:36:25;7.00;;;3.53;;
46561;SDS011;32289;42.688;23.330;2023-05-20T12:40:07;5.22;;;3.00;;
46561;SDS011;32289;42.688;23.330;2023-05-20T12:43:48;4.90;;;2.65;;
46561;SDS011;32289;42.688;23.330;2023-05-20T12:47:29;4.68;;;1.98;;
46561;SDS011;32289;42.688;23.330;2023-05-20T12:51:11;4.88;;;1.65;;
46561;SDS011;32289;42.688;23.330;2023-05-20T12:54:55;4.05;;;2.10;;
46561;SDS011;32289;42.688;23.330;2023-05-20T12:58:36;7.50;;;3.45;;
46561;SDS011;32289;42.688;23.330;2023-05-20T13:02:18;4.18;;;2.30;;
46561;SDS011;32289;42.688;23.330;2023-05-20T13:05:59;3.65;;;2.17;;
46561;SDS011;32289;42.688;23.330;2023-05-20T13:09:40;4.03;;;2.70;;
46561;SDS011;32289;42.688;23.330;2023-05-20T13:13:20;7.05;;;3.70;;
46561;SDS011;32289;42.688;23.330;2023-05-20T13:17:01;6.70;;;4.07;;
46561;SDS011;32289;42.688;23.330;2023-05-20T13:20:42;4.07;;;2.90;;
46561;SDS011;32289;42.688;23.330;2023-05-20T13:24:23;5.90;;;2.92;;
46561;SDS011;32289;42.688;23.330;2023-05-20T13:28:04;4.63;;;2.85;;
46561;SDS011;32289;42.688;23.330;2023-05-20T13:31:45;4.63;;;2.92;;
46561;SDS011;32289;42.688;23.330;2023-05-20T13:35:26;6.65;;;3.40;;
46561;SDS011;32289;42.688;23.330;2023-05-20T13:39:07;5.25;;;3.20;;
46561;SDS011;32289;42.688;23.330;2023-05-20T13:42:47;6.13;;;3.25;;
46561;SDS011;32289;42.688;23.330;2023-05-20T13:46:28;5.38;;;2.63;;
46561;SDS011;32289;42.688;23.330;2023-05-20T13:50:09;5.22;;;2.97;;
46561;SDS011;32289;42.688;23.330;2023-05-20T13:53:50;5.82;;;3.10;;
46561;SDS011;32289;42.688;23.330;2023-05-20T13:57:31;6.07;;;2.92;;
46561;SDS011;32289;42.688;23.330;2023-05-20T14:01:12;14.90;;;8.15;;
46561;SDS011;32289;42.688;23.330;2023-05-20T14:04:54;7.75;;;2.65;;
46561;SDS011;32289;42.688;23.330;2023-05-20T14:08:35;5.60;;;3.15;;
46561;SDS011;32289;42.688;23.330;2023-05-20T14:12:15;5.90;;;3.15;;
46561;SDS011;32289;42.688;23.330;2023-05-20T14:15:56;3.85;;;2.70;;
46561;SDS011;32289;42.688;23.330;2023-05-20T14:19:36;7.82;;;3.92;;
46561;SDS011;32289;42.688;23.330;2023-05-20T14:23:17;5.15;;;4.00;;
46561;SDS011;32289;42.688;23.330;2023-05-20T14:26:58;5.70;;;2.90;;
46561;SDS011;32289;42.688;23.330;2023-05-20T14:30:38;5.70;;;3.35;;
46561;SDS011;32289;42.688;23.330;2023-05-20T14:34:19;5.43;;;3.33;;
46561;SDS011;32289;42.688;23.330;2023-05-20T14:38:00;4.75;;;3.13;;
46561;SDS011;32289;42.688;23.330;2023-05-20T14:41:41;6.03;;;3.22;;
46561;SDS011;32289;42.688;23.330;2023-05-20T14:45:21;5.93;;;3.72;;
46561;SDS011;32289;42.688;23.330;2023-05-20T14:49:02;6.65;;;3.50;;
46561;SDS011;32289;42.688;23.330;2023-05-20T14:52:42;8.57;;;4.25;;
46561;SDS011;32289;42.688;23.330;2023-05-20T14:56:23;6.70;;;3.58;;
46561;SDS011;32289;42.688;23.330;2023-05-20T15:00:06;6.22;;;3.83;;
46561;SDS011;32289;42.688;23.330;2023-05-20T15:03:48;5.53;;;3.40;;
46561;SDS011;32289;42.688;23.330;2023-05-20T15:07:28;6.38;;;4.00;;
46561;SDS011;32289;42.688;23.330;2023-05-20T15:11:09;8.85;;;3.92;;
46561;SDS011;32289;42.688;23.330;2023-05-20T15:14:50;5.72;;;3.47;;
46561;SDS011;32289;42.688;23.330;2023-05-20T15:18:30;6.75;;;4.13;;
46561;SDS011;32289;42.688;23.330;2023-05-20T15:22:11;5.18;;;3.63;;
46561;SDS011;32289;42.688;23.330;2023-05-20T15:25:52;6.93;;;4.13;;
46561;SDS011;32289;42.688;23.330;2023-05-20T15:29:32;5.85;;;3.78;;
46561;SDS011;32289;42.688;23.330;2023-05-20T15:33:13;5.13;;;3.58;;
46561;SDS011;32289;42.688;23.330;2023-05-20T15:36:54;5.28;;;3.58;;
46561;SDS011;32289;42.688;23.330;2023-05-20T15:40:35;6.10;;;4.00;;
46561;SDS011;32289;42.688;23.330;2023-05-20T15:44:16;7.07;;;4.32;;
46561;SDS011;32289;42.688;23.330;2023-05-20T15:47:57;9.15;;;3.50;;
46561;SDS011;32289;42.688;23.330;2023-05-20T15:51:37;8.13;;;4.03;;
46561;SDS011;32289;42.688;23.330;2023-05-20T15:55:18;6.22;;;3.63;;
46561;SDS011;32289;42.688;23.330;2023-05-20T15:59:02;13.13;;;5.85;;
46561;SDS011;32289;42.688;23.330;2023-05-20T16:02:42;4.35;;;3.38;;
46561;SDS011;32289;42.688;23.330;2023-05-20T16:06:23;8.27;;;4.40;;
46561;SDS011;32289;42.688;23.330;2023-05-20T16:10:04;6.43;;;4.00;;
46561;SDS011;32289;42.688;23.330;2023-05-20T16:13:45;6.30;;;3.72;;
46561;SDS011;32289;42.688;23.330;2023-05-20T16:17:25;10.65;;;4.25;;
46561;SDS011;32289;42.688;23.330;2023-05-20T16:21:06;7.18;;;3.97;;
46561;SDS011;32289;42.688;23.330;2023-05-20T16:24:47;6.32;;;3.92;;
46561;SDS011;32289;42.688;23.330;2023-05-20T16:28:27;5.50;;;3.63;;
46561;SDS011;32289;42.688;23.330;2023-05-20T16:32:08;6.75;;;4.43;;
46561;SDS011;32289;42.688;23.330;2023-05-20T16:35:49;6.28;;;4.15;;
46561;SDS011;32289;42.688;23.330;2023-05-20T16:39:30;5.80;;;3.67;;
46561;SDS011;32289;42.688;23.330;2023-05-20T16:43:11;5.57;;;3.70;;
46561;SDS011;32289;42.688;23.330;2023-05-20T16:46:51;5.95;;;4.10;;
46561;SDS011;32289;42.688;23.330;2023-05-20T16:50:32;6.43;;;3.60;;
46561;SDS011;32289;42.688;23.330;2023-05-20T16:54:13;7.80;;;4.10;;
46561;SDS011;32289;42.688;23.330;2023-05-20T16:57:54;8.30;;;3.30;;
46561;SDS011;32289;42.688;23.330;2023-05-20T17:01:34;6.70;;;3.15;;
46561;SDS011;32289;42.688;23.330;2023-05-20T17:05:15;6.05;;;3.55;;
46561;SDS011;32289;42.688;23.330;2023-05-20T17:08:56;5.93;;;3.38;;
46561;SDS011;32289;42.688;23.330;2023-05-20T17:12:38;7.90;;;3.63;;
46561;SDS011;32289;42.688;23.330;2023-05-20T17:16:19;6.45;;;3.88;;
46561;SDS011;32289;42.688;23.330;2023-05-20T17:20:00;7.88;;;3.22;;
46561;SDS011;32289;42.688;23.330;2023-05-20T17:23:40;9.55;;;3.55;;
46561;SDS011;32289;42.688;23.330;2023-05-20T17:27:21;11.05;;;3.85;;
46561;SDS011;32289;42.688;23.330;2023-05-20T17:31:02;6.47;;;3.60;;
46561;SDS011;32289;42.688;23.330;2023-05-20T17:34:42;5.60;;;3.38;;
46561;SDS011;32289;42.688;23.330;2023-05-20T17:38:23;6.28;;;3.70;;
46561;SDS011;32289;42.688;23.330;2023-05-20T17:42:05;5.82;;;3.15;;
46561;SDS011;32289;42.688;23.330;2023-05-20T17:45:46;5.57;;;3.28;;
46561;SDS011;32289;42.688;23.330;2023-05-20T17:49:27;5.32;;;3.20;;
46561;SDS011;32289;42.688;23.330;2023-05-20T17:53:08;7.45;;;4.22;;
46561;SDS011;32289;42.688;23.330;2023-05-20T17:56:48;6.40;;;3.92;;
46561;SDS011;32289;42.688;23.330;2023-05-20T18:00:30;7.30;;;3.33;;
46561;SDS011;32289;42.688;23.330;2023-05-20T18:04:13;8.35;;;3.72;;
46561;SDS011;32289;42.688;23.330;2023-05-20T18:07:53;8.60;;;3.45;;
46561;SDS011;32289;42.688;23.330;2023-05-20T18:11:34;12.80;;;3.35;;
46561;SDS011;32289;42.688;23.330;2023-05-20T18:15:15;6.10;;;3.78;;
46561;SDS011;32289;42.688;23.330;2023-05-20T18:18:57;5.30;;;3.15;;
46561;SDS011;32289;42.688;23.330;2023-05-20T18:22:38;9.32;;;3.85;;
46561;SDS011;32289;42.688;23.330;2023-05-20T18:26:24;7.10;;;3.92;;
46561;SDS011;32289;42.688;23.330;2023-05-20T18:30:05;13.55;;;4.07;;
46561;SDS011;32289;42.688;23.330;2023-05-20T18:33:47;6.55;;;3.42;;
46561;SDS011;32289;42.688;23.330;2023-05-20T18:37:28;8.60;;;3.60;;
46561;SDS011;32289;42.688;23.330;2023-05-20T18:41:09;5.35;;;3.20;;
46561;SDS011;32289;42.688;23.330;2023-05-20T18:44:50;8.05;;;3.17;;
46561;SDS011;32289;42.688;23.330;2023-05-20T18:48:32;9.15;;;3.65;;
46561;SDS011;32289;42.688;23.330;2023-05-20T18:52:13;10.07;;;4.07;;
46561;SDS011;32289;42.688;23.330;2023-05-20T18:55:53;11.32;;;4.45;;
46561;SDS011;32289;42.688;23.330;2023-05-20T18:59:35;6.68;;;4.00;;
46561;SDS011;32289;42.688;23.330;2023-05-20T19:03:16;7.57;;;4.30;;
46561;SDS011;32289;42.688;23.330;2023-05-20T19:06:57;9.52;;;4.45;;
46561;SDS011;32289;42.688;23.330;2023-05-20T19:10:39;8.18;;;4.20;;
46561;SDS011;32289;42.688;23.330;2023-05-20T19:14:21;7.47;;;4.15;;
46561;SDS011;32289;42.688;23.330;2023-05-20T19:18:01;9.32;;;4.55;;
46561;SDS011;32289;42.688;23.330;2023-05-20T19:21:42;6.72;;;4.72;;
46561;SDS011;32289;42.688;23.330;2023-05-20T19:25:23;10.45;;;4.57;;
46561;SDS011;32289;42.688;23.330;2023-05-20T19:29:04;10.55;;;4.93;;
46561;SDS011;32289;42.688;23.330;2023-05-20T19:32:45;7.65;;;4.57;;
46561;SDS011;32289;42.688;23.330;2023-05-20T19:36:26;10.38;;;5.65;;
46561;SDS011;32289;42.688;23.330;2023-05-20T19:40:08;12.00;;;4.80;;
46561;SDS011;32289;42.688;23.330;2023-05-20T19:43:49;9.85;;;4.13;;
46561;SDS011;32289;42.688;23.330;2023-05-20T19:47:30;7.65;;;4.38;;
46561;SDS011;32289;42.688;23.330;2023-05-20T19:51:11;9.10;;;4.90;;
46561;SDS011;32289;42.688;23.330;2023-05-20T19:54:51;6.57;;;4.22;;
46561;SDS011;32289;42.688;23.330;2023-05-20T19:58:32;8.48;;;4.90;;
46561;SDS011;32289;42.688;23.330;2023-05-20T20:02:13;10.05;;;5.20;;
46561;SDS011;32289;42.688;23.330;2023-05-20T20:05:53;12.85;;;4.57;;
46561;SDS011;32289;42.688;23.330;2023-05-20T20:09:35;10.43;;;5.28;;
46561;SDS011;32289;42.688;23.330;2023-05-20T20:13:16;11.98;;;5.55;;
46561;SDS011;32289;42.688;23.330;2023-05-20T20:16:57;8.88;;;4.70;;
46561;SDS011;32289;42.688;23.330;2023-05-20T20:20:40;10.05;;;5.57;;
46561;SDS011;32289;42.688;23.330;2023-05-20T20:24:21;6.78;;;4.32;;
46561;SDS011;32289;42.688;23.330;2023-05-20T20:28:03;7.97;;;4.80;;
46561;SDS011;32289;42.688;23.330;2023-05-20T20:31:45;10.07;;;4.82;;
46561;SDS011;32289;42.688;23.330;2023-05-20T20:35:25;12.02;;;5.00;;
46561;SDS011;32289;42.688;23.330;2023-05-20T20:39:06;14.40;;;6.88;;
46561;SDS011;32289;42.688;23.330;2023-05-20T20:42:47;13.10;;;5.63;;
46561;SDS011;32289;42.688;23.330;2023-05-20T20:46:28;9.13;;;5.10;;
46561;SDS011;32289;42.688;23.330;2023-05-20T20:50:09;8.80;;;4.57;;
46561;SDS011;32289;42.688;23.330;2023-05-20T20:53:50;11.27;;;5.47;;
46561;SDS011;32289;42.688;23.330;2023-05-20T20:57:31;11.77;;;4.63;;
46561;SDS011;32289;42.688;23.330;2023-05-20T21:01:14;13.30;;;5.60;;
46561;SDS011;32289;42.688;23.330;2023-05-20T21:04:56;9.95;;;5.70;;
46561;SDS011;32289;42.688;23.330;2023-05-20T21:08:38;7.70;;;4.90;;
46561;SDS011;32289;42.688;23.330;2023-05-20T21:12:18;11.38;;;5.80;;
46561;SDS011;32289;42.688;23.330;2023-05-20T21:15:59;18.50;;;10.13;;
46561;SDS011;32289;42.688;23.330;2023-05-20T21:19:40;10.48;;;5.82;;
46561;SDS011;32289;42.688;23.330;2023-05-20T21:23:21;10.00;;;5.18;;
46561;SDS011;32289;42.688;23.330;2023-05-20T21:27:02;8.23;;;5.70;;
46561;SDS011;32289;42.688;23.330;2023-05-20T21:30:43;9.50;;;5.80;;
46561;SDS011;32289;42.688;23.330;2023-05-20T21:34:23;11.05;;;6.18;;
46561;SDS011;32289;42.688;23.330;2023-05-20T21:38:04;13.45;;;6.10;;
46561;SDS011;32289;42.688;23.330;2023-05-20T21:41:45;11.40;;;6.63;;
46561;SDS011;32289;42.688;23.330;2023-05-20T21:45:26;10.00;;;5.85;;
46561;SDS011;32289;42.688;23.330;2023-05-20T21:49:06;12.85;;;5.65;;
46561;SDS011;32289;42.688;23.330;2023-05-20T21:52:47;11.23;;;6.22;;
46561;SDS011;32289;42.688;23.330;2023-05-20T21:56:28;12.15;;;6.35;;
46561;SDS011;32289;42.688;23.330;2023-05-20T22:00:08;13.10;;;6.65;;